Time;durP1;ratioP1;P1;durP2;ratioP2;P2;SDS_P1;SDS_P2;PMS_P1;PMS_P2;Temp;Humidity;BMP_temperature;BMP_pressure;BME280_temperature;BME280_humidity;BME280_pressure;Samples;Min_cycle;Max_cycle;Signal;HPM_P1;HPM_P2
2021/11/27 00:02:15;;;;;;;20.10;10.95;;;;;;;4.58;66.77;99276.38;4989878;28;20130;-81
2021/11/27 00:04:41;;;;;;;20.83;12.25;;;;;;;4.49;66.40;99272.03;4973867;28;20404;-80
2021/11/27 00:07:07;;;;;;;21.73;12.07;;;;;;;4.52;66.68;99267.75;4959096;28;20042;-83
2021/11/27 00:09:33;;;;;;;21.83;11.18;;;;;;;4.54;67.09;99280.66;4958507;28;20081;-81
2021/11/27 00:11:59;;;;;;;20.30;11.65;;;;;;;4.54;67.32;99280.66;4981881;28;20046;-82
2021/11/27 00:14:26;;;;;;;18.77;11.13;;;;;;;4.31;66.65;99223.78;4942417;28;20050;-81
2021/11/27 00:16:52;;;;;;;18.90;11.60;;;;;;;4.11;67.50;99180.72;4958893;28;20062;-82
2021/11/27 00:19:18;;;;;;;21.83;11.43;;;;;;;4.65;67.04;99276.44;4969395;28;20046;-80
2021/11/27 00:21:45;;;;;;;19.20;10.93;;;;;;;4.38;66.96;99233.28;4988853;28;20071;-78
2021/11/27 00:24:11;;;;;;;22.77;12.35;;;;;;;4.58;66.63;99260.91;5001621;28;20035;-80
2021/11/27 00:26:37;;;;;;;23.67;12.32;;;;;;;4.33;67.13;99222.97;4973418;28;20485;-80
2021/11/27 00:29:04;;;;;;;20.75;11.25;;;;;;;4.41;66.98;99243.63;4988796;28;20047;-79
2021/11/27 00:31:30;;;;;;;23.20;12.35;;;;;;;4.37;67.56;99232.44;4972994;28;20050;-81
2021/11/27 00:33:57;;;;;;;20.92;11.48;;;;;;;4.48;67.08;99249.69;4959747;28;20101;-80
2021/11/27 00:36:25;;;;;;;20.02;11.63;;;;;;;4.48;67.04;99221.34;5000802;28;20046;-81
2021/11/27 00:38:52;;;;;;;23.85;11.93;;;;;;;4.55;67.08;99240.28;4965063;28;20100;-79
2021/11/27 00:41:21;;;;;;;18.80;10.45;;;;;;;4.57;66.74;99234.28;4997052;28;20054;-81
2021/11/27 00:43:49;;;;;;;22.17;11.25;;;;;;;4.54;66.51;99247.16;4985215;28;20511;-81
2021/11/27 00:46:16;;;;;;;19.17;10.55;;;;;;;4.49;66.03;99229.09;4968283;28;20042;-80
2021/11/27 00:48:43;;;;;;;17.02;10.55;;;;;;;4.55;67.27;99241.16;4982679;28;20043;-80
2021/11/27 00:51:13;;;;;;;16.77;9.88;;;;;;;4.51;66.73;99247.13;4928204;28;20462;-80
2021/11/27 00:53:43;;;;;;;18.17;9.43;;;;;;;4.24;67.29;99204.84;4957727;28;20050;-80
2021/11/27 00:56:09;;;;;;;18.63;10.63;;;;;;;4.48;67.39;99247.97;4958103;28;20050;-81
2021/11/27 00:58:36;;;;;;;16.60;10.15;;;;;;;4.29;67.45;99205.75;4958862;28;20151;-81
2021/11/27 01:01:08;;;;;;;19.45;10.18;;;;;;;4.02;67.06;99185.81;4973404;28;20088;-83
2021/11/27 01:03:37;;;;;;;18.75;9.73;;;;;;;4.39;66.71;99244.47;4959048;28;20046;-79
2021/11/27 01:06:07;;;;;;;15.80;9.43;;;;;;;4.26;67.53;99212.63;4944075;28;20038;-83
2021/11/27 01:08:33;;;;;;;18.67;9.98;;;;;;;4.36;67.15;99219.53;4958217;28;20043;-79
2021/11/27 01:11:08;;;;;;;19.70;10.57;;;;;;;4.39;66.74;99218.72;4940741;28;20053;-79
2021/11/27 01:13:37;;;;;;;17.48;9.70;;;;;;;4.41;66.92;99215.28;4956718;28;20038;-80
2021/11/27 01:16:06;;;;;;;18.65;10.10;;;;;;;4.41;66.92;99207.56;4940407;28;20050;-82
2021/11/27 01:18:32;;;;;;;17.67;10.32;;;;;;;4.27;67.05;99179.13;4972696;28;20042;-82
2021/11/27 01:21:07;;;;;;;17.25;10.15;;;;;;;4.29;66.93;99213.50;4987899;28;20069;-83
2021/11/27 01:23:34;;;;;;;18.13;10.27;;;;;;;3.89;67.25;99157.38;4971563;28;20511;-81
2021/11/27 01:26:00;;;;;;;17.83;10.65;;;;;;;4.21;67.07;99226.31;4956035;28;20070;-80
2021/11/27 01:28:26;;;;;;;19.67;10.05;;;;;;;3.75;67.40;99159.84;4940387;28;20420;-79
2021/11/27 01:30:56;;;;;;;19.20;10.38;;;;;;;4.38;67.37;99243.59;4955970;28;20049;-80
2021/11/27 01:33:23;;;;;;;18.38;10.20;;;;;;;4.36;66.92;99248.75;4974823;28;20049;-82
2021/11/27 01:35:51;;;;;;;17.52;10.63;;;;;;;4.29;66.36;99251.28;4980770;28;20109;-81
2021/11/27 01:38:18;;;;;;;17.75;10.27;;;;;;;4.06;66.91;99216.75;4956670;28;20039;-81
2021/11/27 01:40:44;;;;;;;18.38;10.43;;;;;;;4.28;67.19;99252.97;4955876;28;20455;-83
2021/11/27 01:43:11;;;;;;;21.42;10.50;;;;;;;4.20;67.03;99252.91;4940536;28;20097;-80
2021/11/27 01:45:38;;;;;;;21.83;11.30;;;;;;;4.23;65.85;99259.78;4990846;28;20067;-81
2021/11/27 01:48:07;;;;;;;21.15;11.68;;;;;;;4.20;66.73;99254.63;4957719;28;20062;-83
2021/11/27 01:50:38;;;;;;;19.75;11.27;;;;;;;4.12;67.44;99235.69;4984771;28;20023;-80
2021/11/27 01:53:06;;;;;;;21.83;11.57;;;;;;;4.18;67.56;99246.03;4993763;28;20050;-80
2021/11/27 01:55:33;;;;;;;18.58;10.88;;;;;;;4.19;67.38;99245.19;4977493;28;20051;-83
2021/11/27 01:57:59;;;;;;;21.02;11.45;;;;;;;4.01;67.01;99209.84;4979395;28;20043;-80
2021/11/27 02:00:29;;;;;;;21.45;12.00;;;;;;;3.84;67.00;99176.22;4980710;28;20058;-79
2021/11/27 02:02:55;;;;;;;21.13;11.27;;;;;;;4.10;67.41;99227.06;4931323;28;20107;-80
2021/11/27 02:05:26;;;;;;;21.33;11.35;;;;;;;4.13;67.82;99235.69;4961720;28;20038;-77
2021/11/27 02:07:53;;;;;;;25.05;12.02;;;;;;;3.88;67.34;99207.16;4993351;28;20101;-80
2021/11/27 02:10:22;;;;;;;22.50;12.50;;;;;;;4.08;67.61;99250.25;4959149;28;20054;-80
2021/11/27 02:12:49;;;;;;;20.75;11.85;;;;;;;3.64;67.31;99187.22;4941316;28;20062;-78
2021/11/27 02:15:17;;;;;;;24.17;12.55;;;;;;;4.04;68.04;99233.91;4955936;28;20050;-85
2021/11/27 02:17:46;;;;;;;20.00;10.77;;;;;;;4.11;67.70;99255.41;4958442;28;20205;-82
2021/11/27 02:20:14;;;;;;;18.27;10.55;;;;;;;3.95;67.26;99238.09;4958924;28;20129;-80
2021/11/27 02:22:40;;;;;;;19.00;11.38;;;;;;;4.02;67.35;99250.19;4975202;28;20061;-80
2021/11/27 02:25:12;;;;;;;20.95;11.00;;;;;;;3.95;67.57;99244.13;4944479;28;20047;-81
2021/11/27 02:27:43;;;;;;;22.30;10.77;;;;;;;4.06;67.10;99257.09;4976513;28;20487;-83
2021/11/27 02:30:10;;;;;;;21.15;11.15;;;;;;;3.86;67.51;99219.13;4928172;28;20456;-82
2021/11/27 02:32:38;;;;;;;20.52;10.93;;;;;;;3.99;67.46;99239.84;4960675;28;20142;-81
2021/11/27 02:35:06;;;;;;;20.80;10.80;;;;;;;4.04;67.64;99249.34;4946219;28;20101;-78
2021/11/27 02:37:32;;;;;;;22.45;11.15;;;;;;;4.00;67.95;99231.28;5009108;28;20038;-79
2021/11/27 02:39:58;;;;;;;24.05;11.23;;;;;;;3.86;67.38;99216.56;4969408;28;20128;-84
2021/11/27 02:42:25;;;;;;;20.30;11.45;;;;;;;4.04;67.72;99244.19;4961069;28;20424;-78
2021/11/27 02:44:52;;;;;;;19.38;10.73;;;;;;;3.97;67.31;99238.97;4956940;28;20075;-83
2021/11/27 02:47:18;;;;;;;22.58;11.35;;;;;;;3.97;67.57;99236.41;4974094;28;20291;-80
2021/11/27 02:49:44;;;;;;;17.85;10.48;;;;;;;4.00;67.46;99239.84;4959262;28;20043;-78
2021/11/27 02:52:11;;;;;;;20.38;10.98;;;;;;;4.02;67.20;99252.75;4941966;29;20038;-79
2021/11/27 02:54:37;;;;;;;20.98;11.02;;;;;;;3.91;67.17;99230.34;4959093;29;20047;-80
2021/11/27 02:57:04;;;;;;;21.48;11.55;;;;;;;3.89;67.59;99223.47;4960679;29;20035;-78
2021/11/27 02:59:30;;;;;;;17.52;10.80;;;;;;;3.96;67.85;99240.72;4912553;29;20047;-81
2021/11/27 03:02:01;;;;;;;21.70;10.57;;;;;;;3.92;68.15;99228.66;4968682;28;20043;-78
2021/11/27 03:04:33;;;;;;;22.10;11.13;;;;;;;4.03;67.18;99239.03;4989424;28;20046;-79
2021/11/27 03:07:00;;;;;;;19.77;11.02;;;;;;;3.86;67.06;99220.88;4957745;29;20039;-78
2021/11/27 03:09:26;;;;;;;17.27;10.25;;;;;;;3.97;67.47;99246.72;4974176;29;20054;-80
2021/11/27 03:11:55;;;;;;;19.75;10.20;;;;;;;3.93;67.24;99238.09;4972499;28;20050;-79
2021/11/27 03:14:23;;;;;;;20.27;10.73;;;;;;;3.72;67.72;99208.75;4972246;29;20121;-80
2021/11/27 03:16:49;;;;;;;19.77;10.27;;;;;;;3.84;67.62;99236.31;4987527;28;20062;-78
2021/11/27 03:19:18;;;;;;;20.75;11.15;;;;;;;3.57;68.06;99198.28;4965329;29;20039;-79
2021/11/27 03:21:44;;;;;;;20.88;10.98;;;;;;;3.73;67.97;99207.00;4948167;29;20043;-80
2021/11/27 03:24:11;;;;;;;18.75;10.10;;;;;;;3.69;67.92;99193.25;4968107;29;20039;-79
2021/11/27 03:26:37;;;;;;;18.48;10.30;;;;;;;3.98;67.63;99238.13;4956888;29;20046;-81
2021/11/27 03:29:03;;;;;;;20.85;10.38;;;;;;;3.69;67.79;99195.84;4971830;28;20102;-83
2021/11/27 03:31:30;;;;;;;20.10;11.52;;;;;;;3.72;67.47;99185.56;4987446;28;20043;-78
2021/11/27 03:33:58;;;;;;;17.95;9.80;;;;;;;3.90;67.57;99226.03;4984911;28;20085;-78
2021/11/27 03:36:24;;;;;;;22.00;11.13;;;;;;;3.80;67.63;99195.06;4986009;28;20038;-81
2021/11/27 03:38:51;;;;;;;19.55;10.23;;;;;;;3.77;67.49;99201.06;4955956;29;20731;-80
2021/11/27 03:41:17;;;;;;;19.10;10.88;;;;;;;3.96;67.80;99230.41;4946959;29;20046;-82
2021/11/27 03:43:45;;;;;;;22.40;11.70;;;;;;;3.91;67.92;99234.66;4958044;28;20047;-82
2021/11/27 03:46:11;;;;;;;19.98;11.10;;;;;;;3.60;67.14;99178.59;4991214;28;20040;-78
2021/11/27 03:48:41;;;;;;;20.23;11.25;;;;;;;3.94;67.64;99236.38;4943133;28;20045;-81
2021/11/27 03:51:18;;;;;;;22.20;11.18;;;;;;;3.86;67.12;99244.88;4950592;28;20045;-82
2021/11/27 03:53:45;;;;;;;20.13;10.88;;;;;;;3.78;67.92;99231.09;4975688;28;20101;-80
2021/11/27 03:56:16;;;;;;;20.33;10.23;;;;;;;3.85;67.70;99237.16;4943633;28;20436;-79
2021/11/27 03:58:45;;;;;;;19.88;11.07;;;;;;;3.66;67.52;99225.81;4976055;28;20042;-81
2021/11/27 04:01:14;;;;;;;18.27;10.57;;;;;;;3.81;67.75;99245.69;4958501;28;20038;-82
2021/11/27 04:03:42;;;;;;;20.95;10.95;;;;;;;3.55;67.40;99202.53;4975549;28;20486;-77
2021/11/27 04:06:08;;;;;;;22.42;11.05;;;;;;;3.76;68.14;99241.34;4928107;28;20039;-81
2021/11/27 04:08:35;;;;;;;21.45;10.57;;;;;;;3.41;67.31;99174.13;4993928;28;20073;-80
2021/11/27 04:11:02;;;;;;;21.75;11.07;;;;;;;3.40;67.95;99185.28;4994227;28;20053;-83
2021/11/27 04:13:29;;;;;;;23.42;11.63;;;;;;;3.59;67.78;99210.34;4976046;28;20050;-83
2021/11/27 04:15:55;;;;;;;26.67;11.68;;;;;;;3.83;68.03;99239.72;4974041;28;20042;-83
2021/11/27 04:18:22;;;;;;;19.38;10.30;;;;;;;3.51;67.84;99182.81;4990467;28;20042;-82
2021/11/27 04:20:49;;;;;;;21.63;10.98;;;;;;;3.54;67.97;99181.13;4977129;28;20054;-81
2021/11/27 04:23:17;;;;;;;19.70;11.23;;;;;;;3.89;67.23;99234.63;4975342;28;20061;-78
2021/11/27 04:25:44;;;;;;;18.42;11.13;;;;;;;3.62;67.64;99191.47;4973114;28;20066;-83
2021/11/27 04:28:11;;;;;;;19.42;10.88;;;;;;;3.79;67.01;99224.22;4972812;28;20530;-81
2021/11/27 04:30:40;;;;;;;21.38;11.20;;;;;;;3.77;67.27;99226.78;4941345;28;20197;-82
2021/11/27 04:33:08;;;;;;;19.27;10.80;;;;;;;3.59;68.29;99192.31;4990052;28;20042;-81
2021/11/27 04:35:44;;;;;;;22.08;10.82;;;;;;;3.76;67.54;99225.91;4946797;28;20047;-78
2021/11/27 04:38:15;;;;;;;19.95;11.35;;;;;;;3.75;67.45;99233.63;4946046;28;20027;-77
2021/11/27 04:40:42;;;;;;;21.80;10.48;;;;;;;3.69;67.39;99242.16;4951520;28;20053;-79
2021/11/27 04:43:11;;;;;;;17.85;10.75;;;;;;;3.69;67.50;99262.75;4954937;28;20038;-79
2021/11/27 04:45:37;;;;;;;22.98;10.55;;;;;;;3.50;67.41;99212.78;4987572;28;20054;-83
2021/11/27 04:48:04;;;;;;;23.52;11.30;;;;;;;3.69;67.68;99243.84;4950973;28;20535;-79
2021/11/27 04:50:32;;;;;;;22.52;11.20;;;;;;;3.60;67.15;99240.38;4977084;28;20570;-81
2021/11/27 04:53:03;;;;;;;23.65;11.10;;;;;;;3.53;67.57;99236.00;4955910;28;20520;-82
2021/11/27 04:55:32;;;;;;;22.63;11.27;;;;;;;3.65;67.92;99258.41;4972911;28;20042;-83
2021/11/27 04:58:03;;;;;;;23.98;11.52;;;;;;;3.52;67.53;99243.69;4972323;28;20050;-82
2021/11/27 05:00:45;;;;;;;19.98;10.90;;;;;;;3.57;67.67;99247.16;4960412;28;20046;-80
2021/11/27 05:03:14;;;;;;;18.08;10.27;;;;;;;3.43;67.79;99218.72;4948738;28;20046;-81
2021/11/27 05:05:40;;;;;;;21.67;11.00;;;;;;;3.55;68.17;99228.28;4945452;28;20181;-78
2021/11/27 05:08:08;;;;;;;17.98;9.43;;;;;;;3.44;67.28;99217.88;4990445;28;20105;-80
2021/11/27 05:10:35;;;;;;;24.98;11.40;;;;;;;3.37;67.47;99210.94;4963822;28;20070;-79
2021/11/27 05:13:01;;;;;;;21.17;11.18;;;;;;;3.44;67.40;99231.59;4949913;28;20054;-80
2021/11/27 05:15:29;;;;;;;18.05;10.20;;;;;;;3.48;67.82;99235.06;4948159;28;20071;-83
2021/11/27 05:17:59;;;;;;;23.58;11.23;;;;;;;3.24;67.54;99189.38;4946910;28;20050;-78
2021/11/27 05:20:35;;;;;;;21.98;11.00;;;;;;;3.27;67.51;99192.00;4975487;28;20535;-78
2021/11/27 05:23:03;;;;;;;20.92;10.05;;;;;;;3.57;67.03;99242.91;4956737;28;20043;-81
2021/11/27 05:25:29;;;;;;;21.10;10.88;;;;;;;3.48;67.93;99227.34;4975430;28;20073;-79
2021/11/27 05:28:25;;;;;;;18.23;10.07;;;;;;;3.58;67.65;99247.19;4905821;28;20044;-80
2021/11/27 05:31:16;;;;;;;18.67;9.85;;;;;;;3.53;67.57;99220.56;4955339;28;20050;-82
2021/11/27 05:36:13;;;;;;;19.98;10.75;;;;;;;3.56;66.82;99230.88;4958900;28;20046;-79
2021/11/27 05:38:40;;;;;;;21.60;11.13;;;;;;;3.60;67.16;99245.50;4995786;28;20039;-79
2021/11/27 05:41:09;;;;;;;26.55;12.60;;;;;;;3.42;67.16;99207.56;4983905;28;20527;-81
2021/11/27 05:43:36;;;;;;;23.52;12.07;;;;;;;3.09;67.00;99152.34;4951411;28;20062;-80
2021/11/27 05:46:03;;;;;;;30.55;13.27;;;;;;;3.71;67.38;99255.03;4959880;28;20098;-82
2021/11/27 05:48:33;;;;;;;20.02;10.52;;;;;;;3.78;67.56;99243.97;4972942;28;20049;-82
2021/11/27 05:51:37;;;;;;;25.58;11.68;;;;;;;3.54;67.59;99217.13;4975125;28;20054;-81
2021/11/27 05:54:03;;;;;;;22.92;10.77;;;;;;;3.33;66.67;99178.31;4960955;28;20043;-87
2021/11/27 05:56:29;;;;;;;19.77;10.77;;;;;;;2.89;67.04;99134.16;4977842;28;20178;-84
2021/11/27 05:58:56;;;;;;;20.17;10.68;;;;;;;3.37;66.74;99223.81;4961821;28;20392;-83
2021/11/27 06:01:23;;;;;;;19.58;9.55;;;;;;;3.61;67.55;99252.38;4962211;28;20034;-80
2021/11/27 06:03:49;;;;;;;22.90;10.70;;;;;;;3.61;66.94;99247.22;4962645;28;20097;-84
2021/11/27 06:06:17;;;;;;;22.67;11.13;;;;;;;3.16;67.28;99179.00;4962897;28;20035;-85
2021/11/27 06:08:43;;;;;;;20.90;10.13;;;;;;;3.57;66.81;99250.63;4979941;28;20109;-83
2021/11/27 06:11:09;;;;;;;18.88;9.38;;;;;;;3.14;67.49;99186.69;4980011;28;20046;-80
2021/11/27 06:13:35;;;;;;;19.48;9.90;;;;;;;3.48;66.26;99245.34;4982786;28;20476;-82
2021/11/27 06:16:06;;;;;;;21.63;10.13;;;;;;;3.55;66.67;99260.03;4936052;28;20073;-82
2021/11/27 06:18:36;;;;;;;24.83;10.93;;;;;;;3.50;66.90;99253.97;4966585;28;20039;-78
2021/11/27 06:21:05;;;;;;;23.08;11.20;;;;;;;3.24;67.47;99215.94;4949289;28;20416;-82
2021/11/27 06:23:31;;;;;;;23.23;11.48;;;;;;;2.75;66.35;99133.97;4969215;28;20049;-81
2021/11/27 06:25:59;;;;;;;37.72;16.27;;;;;;;2.93;66.39;99160.72;4977783;28;20428;-80
2021/11/27 06:28:25;;;;;;;36.58;15.35;;;;;;;3.48;66.60;99247.94;4974976;28;20115;-78
2021/11/27 06:30:55;;;;;;;22.92;10.77;;;;;;;3.32;66.86;99228.88;4990159;28;20042;-80
2021/11/27 06:33:22;;;;;;;24.92;10.55;;;;;;;3.40;66.14;99242.72;4956904;28;20070;-81
2021/11/27 06:35:48;;;;;;;17.80;8.63;;;;;;;3.13;66.56;99184.13;4989942;28;20047;-81
2021/11/27 06:38:21;;;;;;;19.40;9.30;;;;;;;2.67;65.53;99115.91;4993079;28;20038;-80
2021/11/27 06:40:48;;;;;;;18.55;9.18;;;;;;;3.38;66.78;99251.25;4990461;28;20070;-79
2021/11/27 06:43:19;;;;;;;20.23;10.88;;;;;;;3.35;66.50;99239.22;4969656;28;20062;-82
2021/11/27 06:46:03;;;;;;;18.75;9.57;;;;;;;3.23;66.49;99200.50;4971368;28;20047;-81
2021/11/27 06:48:32;;;;;;;15.57;8.65;;;;;;;3.47;66.65;99223.03;4972440;28;20034;-81
2021/11/27 06:50:58;;;;;;;18.42;7.65;;;;;;;3.25;65.64;99199.66;4991097;28;20107;-78
2021/11/27 06:53:35;;;;;;;16.27;7.85;;;;;;;3.14;65.77;99196.97;4992393;28;20038;-85
2021/11/27 06:56:03;;;;;;;17.10;8.07;;;;;;;3.28;66.05;99235.72;4991437;28;20046;-81
2021/11/27 06:58:31;;;;;;;15.52;8.15;;;;;;;2.74;66.32;99136.53;4973698;28;20167;-83
2021/11/27 07:01:24;;;;;;;15.65;8.10;;;;;;;2.76;65.65;99137.44;4961387;28;20468;-83
2021/11/27 07:04:54;;;;;;;17.25;7.70;;;;;;;3.18;65.60;99233.91;4977061;28;20097;-81
2021/11/27 07:14:36;;;;;;;17.85;7.88;;;;;;;2.74;65.42;99162.22;4932153;29;20052;-82
2021/11/27 07:17:31;;;;;;;17.90;8.38;;;;;;;2.60;65.24;99126.94;4930264;29;20031;-85
2021/11/27 07:19:58;;;;;;;14.13;7.85;;;;;;;2.77;64.76;99175.09;4915727;29;20154;-81
2021/11/27 07:22:25;;;;;;;19.23;8.98;;;;;;;2.03;65.07;99049.16;4923145;29;20134;-81
2021/11/27 07:24:54;;;;;;;16.05;8.73;;;;;;;2.90;65.14;99187.28;4924276;29;20036;-85
2021/11/27 07:27:36;;;;;;;17.75;9.48;;;;;;;2.67;64.81;99159.56;4904444;28;20043;-81
2021/11/27 07:30:04;;;;;;;21.95;9.88;;;;;;;2.16;65.04;99052.75;4982256;28;20127;-83
2021/11/27 07:32:30;;;;;;;20.38;10.27;;;;;;;2.73;64.87;99152.78;4980960;28;20031;-84
2021/11/27 07:34:56;;;;;;;25.13;10.98;;;;;;;2.89;64.48;99187.22;4998981;28;20102;-83
2021/11/27 07:37:25;;;;;;;20.58;10.52;;;;;;;2.27;64.78;99092.28;4982782;28;20448;-81
2021/11/27 07:39:54;;;;;;;;;;;;;;;2.95;64.66;99236.16;4981878;28;20463;-81
2021/11/27 07:42:23;;;;;;;22.85;11.65;;;;;;;2.95;65.18;99190.78;4981355;28;19968;-84
2021/11/27 07:45:30;;;;;;;21.42;11.60;;;;;;;2.81;64.33;99180.31;4975031;28;20063;-84
2021/11/27 07:48:18;;;;;;;29.17;12.98;;;;;;;2.31;65.06;99076.09;4944263;29;20055;-83
2021/11/27 07:51:18;;;;;;;25.23;11.85;;;;;;;2.86;64.32;99158.13;4942256;29;20110;-82
2021/11/27 07:53:57;;;;;;;25.85;12.20;;;;;;;2.46;64.56;99088.22;4924929;29;20035;-80
2021/11/27 07:56:31;;;;;;;25.77;13.00;;;;;;;2.31;64.99;99031.56;4939382;29;20125;-82
2021/11/27 07:58:57;;;;;;;26.65;12.68;;;;;;;2.39;64.73;99020.53;4940894;29;20244;-80
2021/11/27 08:01:23;;;;;;;26.15;11.98;;;;;;;2.89;63.79;99098.16;4926725;29;20043;-82
2021/11/27 08:03:55;;;;;;;26.88;12.50;;;;;;;2.97;64.44;99093.97;4925480;29;20053;-79
2021/11/27 08:06:30;;;;;;;23.88;11.45;;;;;;;1.91;63.93;98950.66;4923497;29;20465;-83
2021/11/27 08:09:06;;;;;;;23.95;12.23;;;;;;;2.74;64.59;99062.03;4939530;29;20035;-82
2021/11/27 08:11:55;;;;;;;26.52;11.98;;;;;;;2.95;64.11;99081.94;4956752;29;20076;-84
2021/11/27 08:14:26;;;;;;;23.75;12.77;;;;;;;2.05;64.15;98947.38;4939035;29;20082;-84
2021/11/27 08:16:55;;;;;;;28.70;12.15;;;;;;;2.65;63.43;99032.81;4924004;29;20466;-84
2021/11/27 08:19:21;;;;;;;24.15;13.02;;;;;;;2.73;64.53;99035.44;4957142;29;20050;-84
2021/11/27 08:21:47;;;;;;;21.27;11.52;;;;;;;3.13;64.08;99078.69;4972362;29;20042;-82
2021/11/27 08:24:13;;;;;;;24.08;11.98;;;;;;;3.15;64.31;99077.00;4990502;28;20043;-82
2021/11/27 08:26:38;;;;;;;22.80;11.88;;;;;;;3.31;64.11;99086.59;4960020;29;20019;-81
2021/11/27 08:29:07;;;;;;;23.40;11.52;;;;;;;3.49;62.78;99103.03;4966431;29;20246;-81
2021/11/27 08:31:36;;;;;;;20.90;11.30;;;;;;;3.15;63.73;99087.28;4969564;29;20058;-80
2021/11/27 08:34:02;;;;;;;23.15;11.65;;;;;;;3.07;63.61;99092.38;4948017;29;20043;-79
2021/11/27 08:36:35;;;;;;;23.52;11.80;;;;;;;2.88;64.06;99046.72;4962214;29;20043;-78
2021/11/27 08:39:01;;;;;;;21.77;11.35;;;;;;;3.13;63.84;99102.69;4961510;29;20075;-81
2021/11/27 08:41:27;;;;;;;24.83;12.13;;;;;;;2.97;63.68;99060.56;4959732;29;20048;-80
2021/11/27 08:43:53;;;;;;;23.73;12.07;;;;;;;2.96;64.42;99050.25;4944513;28;20061;-83
2021/11/27 08:46:32;;;;;;;25.02;12.02;;;;;;;2.88;63.82;99033.88;4960913;28;20511;-83
2021/11/27 08:49:27;;;;;;;18.63;9.32;;;;;;;3.11;63.53;99091.53;4975397;28;20046;-84
2021/11/27 08:51:56;;;;;;;23.45;12.13;;;;;;;2.74;63.86;99011.47;4942657;28;20113;-83
2021/11/27 08:54:30;;;;;;;24.10;11.00;;;;;;;2.01;63.43;98894.28;4976451;28;20571;-84
2021/11/27 08:56:56;;;;;;;23.40;10.93;;;;;;;2.96;63.93;99055.38;4960719;28;20039;-87
2021/11/27 08:59:25;;;;;;;22.92;11.27;;;;;;;1.98;63.82;98877.16;4961540;28;20411;-83
2021/11/27 09:01:52;;;;;;;23.40;10.80;;;;;;;2.81;63.70;99026.13;4977283;28;20070;-86
2021/11/27 09:04:19;;;;;;;22.55;11.23;;;;;;;3.15;63.45;99069.28;4941618;28;20129;-84
2021/11/27 09:06:48;;;;;;;20.83;10.95;;;;;;;2.94;63.47;99047.69;4944284;28;20034;-83
2021/11/27 09:09:14;;;;;;;19.55;10.35;;;;;;;2.69;62.95;99002.84;5000916;28;20043;-82
2021/11/27 09:11:55;;;;;;;23.38;10.75;;;;;;;2.91;63.36;99039.94;4943530;28;20054;-83
2021/11/27 09:14:32;;;;;;;18.98;9.93;;;;;;;1.92;63.50;98861.69;4990398;28;20148;-82
2021/11/27 09:17:04;;;;;;;21.55;11.70;;;;;;;2.39;63.92;98928.06;4974429;28;20038;-82
2021/11/27 09:19:30;;;;;;;25.00;11.02;;;;;;;2.98;64.25;98999.72;4976660;28;20057;-82
2021/11/27 09:21:58;;;;;;;20.58;11.43;;;;;;;2.95;64.11;99000.56;4959191;28;20053;-85
2021/11/27 09:24:27;;;;;;;23.35;11.98;;;;;;;2.69;63.79;99001.16;4974824;28;20039;-82
2021/11/27 09:26:57;;;;;;;24.02;12.43;;;;;;;2.98;64.19;99030.56;4941725;28;20058;-82
2021/11/27 09:29:38;;;;;;;21.90;10.95;;;;;;;1.83;63.99;98818.84;4957482;28;20038;-84
2021/11/27 09:32:26;;;;;;;22.05;11.63;;;;;;;2.81;64.37;99003.00;4946321;28;20141;-84
2021/11/27 09:34:53;;;;;;;21.90;11.18;;;;;;;3.01;64.41;99023.72;4959208;28;20047;-84
2021/11/27 09:37:24;;;;;;;21.10;11.25;;;;;;;2.41;64.31;98915.28;4962347;28;20046;-86
2021/11/27 09:39:49;;;;;;;22.90;11.00;;;;;;;2.90;64.59;98984.22;4961569;28;20068;-85
2021/11/27 09:42:19;;;;;;;20.77;10.18;;;;;;;3.03;63.59;98984.34;4992054;28;20053;-84
2021/11/27 09:44:52;;;;;;;20.90;11.23;;;;;;;2.62;64.09;98955.69;4973284;28;20062;-83
2021/11/27 09:47:21;;;;;;;21.98;11.98;;;;;;;2.86;64.38;98965.38;4957910;28;20039;-83
2021/11/27 09:49:50;;;;;;;21.35;10.52;;;;;;;2.00;64.10;98842.13;4976380;28;20047;-84
2021/11/27 09:52:16;;;;;;;20.50;10.93;;;;;;;1.90;63.97;98863.38;4976179;28;20046;-81
2021/11/27 09:54:51;;;;;;;19.42;10.43;;;;;;;1.92;64.73;98829.22;4981864;28;20062;-82
2021/11/27 09:57:32;;;;;;;20.20;9.77;;;;;;;2.04;65.07;98866.09;4993616;28;20047;-80
2021/11/27 10:00:21;;;;;;;20.00;9.10;;;;;;;2.17;64.43;98851.69;4975471;28;20074;-81
2021/11/27 10:03:07;;;;;;;20.35;9.38;;;;;;;2.60;64.15;98936.00;4934585;28;20579;-82
2021/11/27 10:05:39;;;;;;;17.95;8.68;;;;;;;1.42;64.45;98771.38;4972483;28;20099;-81
2021/11/27 10:08:40;;;;;;;18.45;8.55;;;;;;;1.90;64.45;98848.84;4989653;28;20174;-80
2021/11/27 10:11:37;;;;;;;16.77;8.70;;;;;;;1.57;64.49;98798.03;4959114;28;20054;-79
2021/11/27 10:14:07;;;;;;;18.80;9.77;;;;;;;1.74;65.58;98811.91;4940891;28;20055;-81
2021/11/27 10:17:06;;;;;;;21.80;9.27;;;;;;;2.60;65.52;98944.53;4957773;28;20122;-85
2021/11/27 10:19:42;;;;;;;18.95;9.25;;;;;;;2.59;65.44;98927.41;4959902;28;20042;-83
2021/11/27 10:22:20;;;;;;;19.48;9.27;;;;;;;2.57;65.53;98916.25;4976583;28;20043;-83
2021/11/27 10:25:38;;;;;;;14.02;8.10;;;;;;;2.43;65.19;98877.59;4973430;28;20133;-82
2021/11/27 10:28:10;;;;;;;21.67;9.93;;;;;;;2.60;65.96;98906.00;4957843;28;20042;-81
2021/11/27 10:31:38;;;;;;;21.45;9.50;;;;;;;1.42;65.62;98735.50;4959257;28;20046;-82
2021/11/27 10:34:30;;;;;;;18.73;8.65;;;;;;;2.38;65.15;98897.25;4943758;28;20059;-83
2021/11/27 10:37:21;;;;;;;18.88;8.50;;;;;;;1.48;64.97;98768.88;4960415;28;20121;-83
2021/11/27 10:40:19;;;;;;;17.88;8.45;;;;;;;2.30;65.78;98938.28;4947106;28;20546;-83
2021/11/27 10:43:14;;;;;;;23.50;10.43;;;;;;;2.17;66.25;98938.97;4966794;28;20070;-84
2021/11/27 10:45:49;;;;;;;21.40;10.70;;;;;;;1.36;66.14;98771.31;4977066;28;20078;-84
2021/11/27 10:48:39;;;;;;;22.27;10.45;;;;;;;2.15;66.10;98932.94;4978936;28;20408;-86
2021/11/27 10:51:08;;;;;;;24.23;10.80;;;;;;;1.54;66.61;98826.19;4947071;28;20044;-83
2021/11/27 10:53:37;;;;;;;20.63;10.18;;;;;;;1.84;66.80;98866.75;4992819;28;20085;-81
2021/11/27 10:56:19;;;;;;;22.42;10.88;;;;;;;1.39;66.60;98822.63;4960583;28;20460;-84
2021/11/27 10:59:35;;;;;;;21.55;10.98;;;;;;;1.24;66.60;98786.50;4960264;28;20047;-84
2021/11/27 11:02:08;;;;;;;21.95;10.57;;;;;;;1.45;66.94;98845.75;4936954;28;20585;-83
2021/11/27 11:04:35;;;;;;;21.58;10.52;;;;;;;1.57;67.33;98883.50;4979068;28;20061;-83
2021/11/27 11:07:13;;;;;;;24.58;10.55;;;;;;;1.72;67.41;98879.44;4976365;28;20070;-82
2021/11/27 11:10:04;;;;;;;25.17;10.85;;;;;;;1.70;67.40;98879.41;4959938;28;20050;-85
2021/11/27 11:12:57;;;;;;;30.13;11.75;;;;;;;1.73;68.02;98878.59;4959849;28;20043;-86
2021/11/27 11:15:38;;;;;;;28.42;13.48;;;;;;;0.83;67.84;98713.41;4982680;28;20114;-82
2021/11/27 11:18:26;;;;;;;26.58;12.35;;;;;;;1.15;68.22;98794.94;4978459;28;20039;-83
2021/11/27 11:20:53;;;;;;;;;;;;;;;1.58;68.32;98856.19;4978389;28;20043;-82
2021/11/27 11:23:25;;;;;;;27.95;12.50;;;;;;;1.05;68.42;98766.66;4976879;28;19946;-82
2021/11/27 11:25:56;;;;;;;26.60;11.88;;;;;;;0.82;67.74;98725.34;4977441;28;20059;-84
2021/11/27 11:28:34;;;;;;;28.88;13.48;;;;;;;1.21;68.58;98777.09;4960585;28;20559;-83
2021/11/27 11:31:37;;;;;;;33.95;13.38;;;;;;;0.27;68.14;98666.56;4960989;28;20043;-86
2021/11/27 11:34:25;;;;;;;32.13;13.13;;;;;;;0.21;68.48;98636.63;4946395;28;20050;-84
2021/11/27 11:37:14;;;;;;;;;;;;;;;;;;;;;
2021/11/27 11:39:58;;;;;;;27.70;12.70;;;;;;;0.23;68.75;98664.78;4977332;28;20042;-83
2021/11/27 11:42:29;;;;;;;25.30;10.70;;;;;;;1.42;68.14;98861.13;4974962;28;20065;-81
2021/11/27 11:45:05;;;;;;;28.98;13.65;;;;;;;1.36;68.83;98843.09;4956395;28;20118;-86
2021/11/27 11:47:52;;;;;;;39.72;14.20;;;;;;;0.16;68.47;98648.50;4962150;28;20443;-82
2021/11/27 11:50:26;;;;;;;34.45;14.07;;;;;;;0.98;69.17;98756.31;4948188;28;20522;-80
2021/11/27 11:53:17;;;;;;;29.15;13.93;;;;;;;1.00;68.83;98758.06;4962454;28;20045;-83
2021/11/27 11:55:57;;;;;;;34.38;14.35;;;;;;;1.53;69.00;98832.19;4983070;28;20039;-81
2021/11/27 11:58:41;;;;;;;24.70;10.90;;;;;;;0.98;68.53;98736.66;4954205;28;20043;-79
2021/11/27 12:01:35;;;;;;;32.80;13.75;;;;;;;0.61;68.96;98679.84;4985227;28;20034;-81
2021/11/27 12:04:04;;;;;;;33.85;14.45;;;;;;;0.71;68.99;98662.91;4951610;28;20058;-80